Time,TemperatureF,DewpointF,PressureIn,WindDirection,WindDirectionDegrees,WindSpeedMPH,WindSpeedGustMPH,Humidity,HourlyPrecipIn,Conditions,Clouds,dailyrainin,SoftwareType,DateUTC
2013-01-08 00:01:00,27.0,20.4,30.33,NNE,22,0.0,0.0,76,0.00,CLR,,0.00,WeatherDisplay:10.37,2013-01-08 05:01:00,
2013-01-08 00:03:00,26.8,20.2,30.32,NNE,22,0.0,0.0,76,0.00,CLR,,0.00,WeatherDisplay:10.37,2013-01-08 05:03:00,
2013-01-08 00:04:00,26.8,20.2,30.32,NNE,22,0.0,0.0,76,0.00,CLR,,0.00,WeatherDisplay:10.37,2013-01-08 05:04:00,
2013-01-08 00:09:00,26.8,20.2,30.33,NNE,22,0.0,0.0,76,0.00,CLR,,0.00,WeatherDisplay:10.37,2013-01-08 05:09:00,
2013-01-08 00:14:00,26.6,20.1,30.33,NNE,22,0.0,0.0,76,0.00,CLR,,0.00,WeatherDisplay:10.37,2013-01-08 05:14:00,
2013-01-08 00:19:00,26.4,19.9,30.32,NNE,22,0.0,0.0,76,0.00,CLR,,0.00,WeatherDisplay:10.37,2013-01-08 05:19:00,
2013-01-08 00:24:00,26.2,19.7,30.32,NNE,22,0.0,0.0,76,0.00,CLR,,0.00,WeatherDisplay:10.37,2013-01-08 05:24:00,
2013-01-08 00:29:00,26.2,20.0,30.33,NE,45,0.0,0.0,77,0.00,CLR,,0.00,WeatherDisplay:10.37,2013-01-08 05:29:00,
2013-01-08 00:34:00,26.2,20.0,30.32,NE,45,0.0,0.0,77,0.00,CLR,,0.00,WeatherDisplay:10.37,2013-01-08 05:34:00,
2013-01-08 00:39:00,26.2,20.0,30.32,NE,45,0.0,0.0,77,0.00,CLR,,0.00,WeatherDisplay:10.37,2013-01-08 05:39:00,
2013-01-08 00:44:00,26.2,20.0,30.33,SSE,158,0.0,0.0,77,0.00,CLR,,0.00,WeatherDisplay:10.37,2013-01-08 05:44:00,
2013-01-08 00:49:00,26.2,20.0,30.33,East,90,0.0,0.0,77,0.00,CLR,,0.00,WeatherDisplay:10.37,2013-01-08 05:49:00,
2013-01-08 00:54:00,26.2,20.0,30.32,East,90,0.0,0.0,77,0.00,CLR,,0.00,WeatherDisplay:10.37,2013-01-08 05:54:00,
2013-01-08 00:59:00,26.2,20.0,30.32,East,90,0.0,0.0,77,0.00,CLR,,0.00,WeatherDisplay:10.37,2013-01-08 05:59:00,
2013-01-08 01:04:00,26.1,19.8,30.32,East,90,0.0,0.0,77,0.00,CLR,,0.00,WeatherDisplay:10.37,2013-01-08 06:04:00,
2013-01-08 01:09:00,25.9,20.0,30.32,East,90,0.0,0.0,78,0.00,CLR,,0.00,WeatherDisplay:10.37,2013-01-08 06:09:00,
2013-01-08 01:14:00,25.7,19.8,30.32,East,90,0.0,0.0,78,0.00,CLR,,0.00,WeatherDisplay:10.37,2013-01-08 06:14:00,
2013-01-08 01:19:00,25.7,19.8,30.32,East,90,0.0,0.0,78,0.00,CLR,,0.00,WeatherDisplay:10.37,2013-01-08 06:19:00,
2013-01-08 01:24:00,25.5,19.6,30.32,East,90,0.0,0.0,78,0.00,CLR,,0.00,WeatherDisplay:10.37,2013-01-08 06:24:00,
2013-01-08 01:29:00,25.5,19.9,30.31,East,90,0.0,0.0,79,0.00,CLR,,0.00,WeatherDisplay:10.37,2013-01-08 06:29:00,
2013-01-08 01:34:00,25.5,19.9,30.32,East,90,0.0,0.0,79,0.00,CLR,,0.00,WeatherDisplay:10.37,2013-01-08 06:34:00,
2013-01-08 01:39:00,25.7,20.1,30.31,East,90,0.0,0.0,79,0.00,CLR,,0.00,WeatherDisplay:10.37,2013-01-08 06:39:00,
2013-01-08 01:44:00,25.9,20.3,30.31,East,90,0.0,0.0,79,0.00,CLR,,0.00,WeatherDisplay:10.37,2013-01-08 06:44:00,
2013-01-08 01:49:00,25.9,20.3,30.31,East,90,0.0,0.0,79,0.00,CLR,,0.00,WeatherDisplay:10.37,2013-01-08 06:49:00,
2013-01-08 01:54:00,25.7,20.1,30.31,East,90,0.0,0.0,79,0.00,CLR,,0.00,WeatherDisplay:10.37,2013-01-08 06:54:00,
2013-01-08 01:59:00,25.5,19.9,30.31,East,90,0.0,0.0,79,0.00,CLR,,0.00,WeatherDisplay:10.37,2013-01-08 06:59:00,
2013-01-08 02:04:00,25.5,19.9,30.31,East,90,0.0,0.0,79,0.00,CLR,,0.00,WeatherDisplay:10.37,2013-01-08 07:04:00,
2013-01-08 02:09:00,25.5,19.9,30.31,East,90,0.0,0.0,79,0.00,CLR,,0.00,WeatherDisplay:10.37,2013-01-08 07:09:00,
2013-01-08 02:14:00,25.3,20.0,30.31,East,90,0.0,0.0,80,0.00,CLR,,0.00,WeatherDisplay:10.37,2013-01-08 07:14:00,
2013-01-08 02:19:00,25.3,20.0,30.31,East,90,0.0,0.0,80,0.00,CLR,,0.00,WeatherDisplay:10.37,2013-01-08 07:19:00,
2013-01-08 02:24:00,25.3,20.0,30.31,East,90,0.0,0.0,80,0.00,CLR,,0.00,WeatherDisplay:10.37,2013-01-08 07:24:00,
2013-01-08 02:29:00,25.3,20.0,30.31,East,90,0.0,0.0,80,0.00,CLR,,0.00,WeatherDisplay:10.37,2013-01-08 07:29:00,
2013-01-08 02:34:00,25.2,19.9,30.31,ENE,68,0.0,0.0,80,0.00,CLR,,0.00,WeatherDisplay:10.37,2013-01-08 07:34:00,
2013-01-08 02:39:00,25.2,19.9,30.31,ENE,68,0.0,0.0,80,0.00,CLR,,0.00,WeatherDisplay:10.37,2013-01-08 07:39:00,
2013-01-08 02:44:00,25.2,19.9,30.31,NE,45,0.0,0.0,80,0.00,CLR,,0.00,WeatherDisplay:10.37,2013-01-08 07:44:00,
2013-01-08 02:49:00,25.2,19.9,30.31,ENE,68,0.2,0.2,80,0.00,CLR,,0.00,WeatherDisplay:10.37,2013-01-08 07:49:00,
2013-01-08 02:54:00,25.2,19.9,30.30,ENE,68,0.0,0.0,80,0.00,CLR,,0.00,WeatherDisplay:10.37,2013-01-08 07:54:00,
2013-01-08 02:59:00,25.0,19.7,30.30,ENE,68,0.0,0.0,80,0.00,CLR,,0.00,WeatherDisplay:10.37,2013-01-08 07:59:00,
2013-01-08 03:04:00,24.8,19.5,30.30,ENE,68,0.0,0.0,80,0.00,CLR,,0.00,WeatherDisplay:10.37,2013-01-08 08:04:00,
2013-01-08 03:09:00,24.8,19.5,30.29,ENE,68,0.0,0.0,80,0.00,CLR,,0.00,WeatherDisplay:10.37,2013-01-08 08:09:00,
2013-01-08 03:14:00,24.8,19.5,30.29,ENE,68,0.0,0.0,80,0.00,CLR,,0.00,WeatherDisplay:10.37,2013-01-08 08:14:00,
2013-01-08 03:19:00,24.8,19.5,30.29,ENE,68,0.0,0.0,80,0.00,CLR,,0.00,WeatherDisplay:10.37,2013-01-08 08:19:00,
2013-01-08 03:24:00,24.8,19.8,30.29,ENE,68,0.0,0.0,81,0.00,CLR,,0.00,WeatherDisplay:10.37,2013-01-08 08:24:00,
2013-01-08 03:29:00,24.8,19.8,30.29,ENE,68,0.0,0.0,81,0.00,CLR,,0.00,WeatherDisplay:10.37,2013-01-08 08:29:00,
2013-01-08 03:34:00,24.8,19.8,30.29,ENE,68,0.0,0.0,81,0.00,CLR,,0.00,WeatherDisplay:10.37,2013-01-08 08:34:00,
2013-01-08 03:39:00,24.8,20.1,30.29,ENE,68,0.0,0.0,82,0.00,CLR,,0.00,WeatherDisplay:10.37,2013-01-08 08:39:00,
2013-01-08 03:44:00,24.8,20.1,30.29,ENE,68,0.0,0.0,82,0.00,CLR,,0.00,WeatherDisplay:10.37,2013-01-08 08:44:00,
2013-01-08 03:49:00,24.8,20.1,30.29,ENE,68,0.0,0.0,82,0.00,CLR,,0.00,WeatherDisplay:10.37,2013-01-08 08:49:00,
2013-01-08 03:54:00,24.8,20.1,30.29,ENE,68,0.0,0.0,82,0.00,CLR,,0.00,WeatherDisplay:10.37,2013-01-08 08:54:00,
2013-01-08 03:59:00,24.8,20.1,30.29,ENE,68,0.0,0.0,82,0.00,CLR,,0.00,WeatherDisplay:10.37,2013-01-08 08:59:00,
2013-01-08 04:04:00,25.0,20.3,30.29,ENE,68,0.0,0.0,82,0.00,CLR,,0.00,WeatherDisplay:10.37,2013-01-08 09:04:00,
2013-01-08 04:09:00,24.8,20.1,30.29,ENE,68,0.0,0.0,82,0.00,CLR,,0.00,WeatherDisplay:10.37,2013-01-08 09:09:00,
2013-01-08 04:14:00,24.8,20.1,30.29,ENE,68,0.0,0.0,82,0.00,CLR,,0.00,WeatherDisplay:10.37,2013-01-08 09:14:00,
2013-01-08 04:19:00,24.8,20.1,30.29,NNW,338,0.0,0.0,82,0.00,CLR,,0.00,WeatherDisplay:10.37,2013-01-08 09:19:00,
2013-01-08 04:24:00,24.8,20.1,30.29,North,0,0.0,0.0,82,0.00,CLR,,0.00,WeatherDisplay:10.37,2013-01-08 09:24:00,
2013-01-08 04:29:00,24.8,20.1,30.29,North,0,0.0,0.0,82,0.00,CLR,,0.00,WeatherDisplay:10.37,2013-01-08 09:29:00,
2013-01-08 04:34:00,25.0,20.5,30.29,North,0,0.0,0.0,83,0.00,CLR,,0.00,WeatherDisplay:10.37,2013-01-08 09:34:00,
2013-01-08 04:39:00,25.2,20.7,30.29,North,0,0.0,0.0,83,0.00,CLR,,0.00,WeatherDisplay:10.37,2013-01-08 09:39:00,
2013-01-08 04:44:00,25.2,20.7,30.30,North,0,0.0,0.0,83,0.00,CLR,,0.00,WeatherDisplay:10.37,2013-01-08 09:44:00,
2013-01-08 04:49:00,25.0,20.5,30.30,North,0,0.0,0.0,83,0.00,CLR,,0.00,WeatherDisplay:10.37,2013-01-08 09:49:00,
2013-01-08 04:54:00,25.2,20.7,30.30,North,0,0.0,0.0,83,0.00,CLR,,0.00,WeatherDisplay:10.37,2013-01-08 09:54:00,
2013-01-08 04:59:00,25.0,20.5,30.30,North,0,0.0,0.0,83,0.00,CLR,,0.00,WeatherDisplay:10.37,2013-01-08 09:59:00,
2013-01-08 05:04:00,25.2,21.0,30.30,North,0,0.0,0.0,84,0.00,CLR,,0.00,WeatherDisplay:10.37,2013-01-08 10:04:00,
2013-01-08 05:09:00,25.2,21.0,30.31,North,0,0.0,0.0,84,0.00,CLR,,0.00,WeatherDisplay:10.37,2013-01-08 10:09:00,
2013-01-08 05:14:00,25.3,21.2,30.31,North,0,0.0,0.0,84,0.00,CLR,,0.00,WeatherDisplay:10.37,2013-01-08 10:14:00,
2013-01-08 05:19:00,25.2,21.0,30.31,North,0,0.0,0.0,84,0.00,CLR,,0.00,WeatherDisplay:10.37,2013-01-08 10:19:00,
2013-01-08 05:24:00,25.3,21.2,30.31,North,0,0.0,0.0,84,0.00,CLR,,0.00,WeatherDisplay:10.37,2013-01-08 10:24:00,
2013-01-08 05:29:00,25.2,21.0,30.31,North,0,0.0,0.0,84,0.00,CLR,,0.00,WeatherDisplay:10.37,2013-01-08 10:29:00,
2013-01-08 05:34:00,25.2,21.0,30.31,North,0,0.0,0.0,84,0.00,CLR,,0.00,WeatherDisplay:10.37,2013-01-08 10:34:00,
2013-01-08 05:39:00,25.0,20.8,30.31,North,0,0.0,0.0,84,0.00,CLR,,0.00,WeatherDisplay:10.37,2013-01-08 10:39:00,
2013-01-08 05:44:00,25.2,21.0,30.31,North,0,0.0,0.0,84,0.00,CLR,,0.00,WeatherDisplay:10.37,2013-01-08 10:44:00,
2013-01-08 05:49:00,25.2,21.0,30.31,North,0,0.0,0.0,84,0.00,CLR,,0.00,WeatherDisplay:10.37,2013-01-08 10:49:00,
2013-01-08 05:54:00,25.2,21.0,30.31,NE,45,0.0,0.0,84,0.00,CLR,,0.00,WeatherDisplay:10.37,2013-01-08 10:54:00,
2013-01-08 05:59:00,25.2,21.0,30.31,NE,45,0.0,0.0,84,0.00,CLR,,0.00,WeatherDisplay:10.37,2013-01-08 10:59:00,
2013-01-08 06:04:00,25.2,21.0,30.31,NE,45,0.0,0.0,84,0.00,CLR,,0.00,WeatherDisplay:10.37,2013-01-08 11:04:00,
2013-01-08 06:09:00,25.2,21.0,30.31,NE,45,0.0,0.0,84,0.00,CLR,,0.00,WeatherDisplay:10.37,2013-01-08 11:09:00,
2013-01-08 06:14:00,25.2,21.0,30.31,NE,45,0.0,0.0,84,0.00,CLR,,0.00,WeatherDisplay:10.37,2013-01-08 11:14:00,
2013-01-08 06:19:00,25.3,21.5,30.31,NE,45,0.0,0.0,85,0.00,CLR,,0.00,WeatherDisplay:10.37,2013-01-08 11:19:00,
2013-01-08 06:24:00,25.3,21.5,30.31,NE,45,0.0,0.0,85,0.00,CLR,,0.00,WeatherDisplay:10.37,2013-01-08 11:24:00,
2013-01-08 06:29:00,25.3,21.5,30.32,NE,45,0.0,0.0,85,0.00,CLR,,0.00,WeatherDisplay:10.37,2013-01-08 11:29:00,
2013-01-08 06:34:00,25.2,21.0,30.32,NE,45,0.0,0.0,84,0.00,CLR,,0.00,WeatherDisplay:10.37,2013-01-08 11:34:00,
2013-01-08 06:39:00,25.2,21.0,30.32,NE,45,0.0,0.0,84,0.00,CLR,,0.00,WeatherDisplay:10.37,2013-01-08 11:39:00,
2013-01-08 06:44:00,25.0,20.8,30.32,NE,45,0.0,0.0,84,0.00,CLR,,0.00,WeatherDisplay:10.37,2013-01-08 11:44:00,
2013-01-08 06:49:00,25.0,21.1,30.33,NE,45,0.0,0.0,85,0.00,CLR,,0.00,WeatherDisplay:10.37,2013-01-08 11:49:00,
2013-01-08 06:54:00,25.0,21.1,30.33,NE,45,0.0,0.0,85,0.00,CLR,,0.00,WeatherDisplay:10.37,2013-01-08 11:54:00,
2013-01-08 06:59:00,25.2,21.3,30.33,NE,45,0.0,0.0,85,0.00,CLR,,0.00,WeatherDisplay:10.37,2013-01-08 11:59:00,
2013-01-08 07:04:00,25.3,21.5,30.33,NE,45,0.0,0.0,85,0.00,CLR,,0.00,WeatherDisplay:10.37,2013-01-08 12:04:00,
2013-01-08 07:09:00,25.5,21.6,30.34,NNE,22,0.0,0.0,85,0.00,CLR,,0.00,WeatherDisplay:10.37,2013-01-08 12:09:00,
2013-01-08 07:14:00,25.5,21.6,30.34,NNW,338,0.0,0.0,85,0.00,CLR,,0.00,WeatherDisplay:10.37,2013-01-08 12:14:00,
2013-01-08 07:19:00,25.5,21.6,30.34,East,90,0.0,0.0,85,0.00,CLR,,0.00,WeatherDisplay:10.37,2013-01-08 12:19:00,
2013-01-08 07:24:00,25.5,21.4,30.35,ENE,68,0.0,0.0,84,0.00,CLR,,0.00,WeatherDisplay:10.37,2013-01-08 12:24:00,
2013-01-08 07:29:00,25.5,21.4,30.35,NE,45,0.0,0.0,84,0.00,CLR,,0.00,WeatherDisplay:10.37,2013-01-08 12:29:00,
2013-01-08 07:34:00,25.5,21.4,30.35,ENE,68,1.1,1.1,84,0.00,CLR,,0.00,WeatherDisplay:10.37,2013-01-08 12:34:00,
2013-01-08 07:39:00,25.5,21.4,30.36,ENE,68,0.0,0.0,84,0.00,CLR,,0.00,WeatherDisplay:10.37,2013-01-08 12:39:00,
2013-01-08 07:44:00,25.5,21.4,30.35,SE,135,0.0,0.0,84,0.00,CLR,,0.00,WeatherDisplay:10.37,2013-01-08 12:44:00,
2013-01-08 07:49:00,25.5,21.4,30.36,South,180,0.0,0.0,84,0.00,CLR,,0.00,WeatherDisplay:10.37,2013-01-08 12:49:00,
2013-01-08 07:54:00,25.5,21.4,30.36,South,180,0.0,0.0,84,0.00,CLR,,0.00,WeatherDisplay:10.37,2013-01-08 12:54:00,
2013-01-08 07:59:00,25.3,21.2,30.36,South,180,0.0,0.0,84,0.00,CLR,,0.00,WeatherDisplay:10.37,2013-01-08 12:59:00,
2013-01-08 08:04:00,25.3,21.2,30.36,SSW,202,0.0,0.0,84,0.00,CLR,,0.00,WeatherDisplay:10.37,2013-01-08 13:04:00,
2013-01-08 08:09:00,25.5,21.6,30.36,SSW,202,0.0,0.0,85,0.00,CLR,,0.00,WeatherDisplay:10.37,2013-01-08 13:09:00,
2013-01-08 08:14:00,25.7,21.8,30.36,SSE,158,0.0,0.0,85,0.00,CLR,,0.00,WeatherDisplay:10.37,2013-01-08 13:14:00,
2013-01-08 08:19:00,25.9,22.0,30.36,SSE,158,0.0,0.0,85,0.00,CLR,,0.00,WeatherDisplay:10.37,2013-01-08 13:19:00,
2013-01-08 08:24:00,26.1,22.2,30.36,SSE,158,0.0,0.0,85,0.00,CLR,,0.00,WeatherDisplay:10.37,2013-01-08 13:24:00,
2013-01-08 08:29:00,26.2,22.3,30.37,SE,135,0.0,0.0,85,0.00,CLR,,0.00,WeatherDisplay:10.37,2013-01-08 13:29:00,
2013-01-08 08:34:00,26.6,22.7,30.37,South,180,0.0,0.0,85,0.00,CLR,,0.00,WeatherDisplay:10.37,2013-01-08 13:34:00,
2013-01-08 08:39:00,27.0,23.1,30.37,SSE,158,0.0,0.0,85,0.00,CLR,,0.00,WeatherDisplay:10.37,2013-01-08 13:39:00,
2013-01-08 08:44:00,27.7,23.8,30.37,SSW,202,0.0,0.0,85,0.00,CLR,,0.00,WeatherDisplay:10.37,2013-01-08 13:44:00,
2013-01-08 08:49:00,28.0,24.4,30.37,South,180,0.5,0.5,86,0.00,CLR,,0.00,WeatherDisplay:10.37,2013-01-08 13:49:00,
2013-01-08 08:54:00,28.8,25.1,30.37,South,180,0.0,0.0,86,0.00,CLR,,0.00,WeatherDisplay:10.37,2013-01-08 13:54:00,
2013-01-08 08:59:00,29.5,25.8,30.37,WSW,248,1.1,1.1,86,0.00,CLR,,0.00,WeatherDisplay:10.37,2013-01-08 13:59:00,
2013-01-08 09:04:00,30.0,26.3,30.37,South,180,1.1,1.1,86,0.00,CLR,,0.00,WeatherDisplay:10.37,2013-01-08 14:04:00,
2013-01-08 09:09:00,30.6,26.9,30.37,North,0,1.1,1.1,86,0.00,CLR,,0.00,WeatherDisplay:10.37,2013-01-08 14:09:00,
2013-01-08 09:14:00,31.3,27.3,30.36,SSW,202,1.1,1.1,85,0.00,CLR,,0.00,WeatherDisplay:10.37,2013-01-08 14:14:00,
2013-01-08 09:19:00,31.8,27.5,30.36,SSW,202,2.3,2.3,84,0.00,CLR,,0.00,WeatherDisplay:10.37,2013-01-08 14:19:00,
2013-01-08 09:24:00,32.2,27.6,30.36,ESE,112,2.3,2.3,83,0.00,CLR,,0.00,WeatherDisplay:10.37,2013-01-08 14:24:00,
2013-01-08 09:29:00,32.7,28.1,30.36,SSE,158,2.3,2.3,83,0.00,CLR,,0.00,WeatherDisplay:10.37,2013-01-08 14:29:00,
2013-01-08 09:34:00,33.4,28.5,30.36,WNW,292,1.1,1.8,82,0.00,CLR,,0.00,WeatherDisplay:10.37,2013-01-08 14:34:00,
2013-01-08 09:39:00,34.0,29.1,30.36,SSW,202,2.3,2.3,82,0.00,CLR,,0.00,WeatherDisplay:10.37,2013-01-08 14:39:00,
2013-01-08 09:44:00,34.2,28.9,30.36,South,180,1.6,1.6,81,0.00,CLR,,0.00,WeatherDisplay:10.37,2013-01-08 14:44:00,
2013-01-08 09:49:00,34.7,29.2,30.36,SSW,202,1.1,1.1,80,0.00,CLR,,0.00,WeatherDisplay:10.37,2013-01-08 14:49:00,
2013-01-08 09:54:00,34.9,29.3,30.36,SW,225,1.1,1.1,80,0.00,CLR,,0.00,WeatherDisplay:10.37,2013-01-08 14:54:00,
2013-01-08 09:59:00,35.2,29.4,30.36,ESE,112,2.3,2.3,79,0.00,CLR,,0.00,WeatherDisplay:10.37,2013-01-08 14:59:00,
2013-01-08 10:04:00,35.4,29.2,30.36,SSE,158,2.3,2.3,78,0.00,CLR,,0.00,WeatherDisplay:10.37,2013-01-08 15:04:00,
2013-01-08 10:09:00,35.8,29.6,30.36,WSW,248,3.1,3.1,78,0.00,CLR,,0.00,WeatherDisplay:10.37,2013-01-08 15:09:00,
2013-01-08 10:14:00,36.1,29.6,30.36,SE,135,2.3,2.3,77,0.00,CLR,,0.00,WeatherDisplay:10.37,2013-01-08 15:14:00,
2013-01-08 10:19:00,36.5,30.0,30.36,SE,135,2.3,2.3,77,0.00,CLR,,0.00,WeatherDisplay:10.37,2013-01-08 15:19:00,
2013-01-08 10:24:00,36.9,30.0,30.35,SW,225,1.1,1.1,76,0.00,CLR,,0.00,WeatherDisplay:10.37,2013-01-08 15:24:00,
2013-01-08 10:29:00,37.4,30.5,30.35,West,270,3.3,3.3,76,0.00,CLR,,0.00,WeatherDisplay:10.37,2013-01-08 15:29:00,
2013-01-08 10:34:00,37.6,30.4,30.35,SSW,202,3.3,3.3,75,0.00,CLR,,0.00,WeatherDisplay:10.37,2013-01-08 15:34:00,
2013-01-08 10:39:00,38.1,30.6,30.35,ESE,112,2.3,2.3,74,0.00,CLR,,0.00,WeatherDisplay:10.37,2013-01-08 15:39:00,
2013-01-08 10:44:00,38.3,30.7,30.34,SSW,202,4.6,4.6,74,0.00,CLR,,0.00,WeatherDisplay:10.37,2013-01-08 15:44:00,
2013-01-08 10:49:00,38.7,30.7,30.34,SE,135,4.6,4.6,73,0.00,CLR,,0.00,WeatherDisplay:10.37,2013-01-08 15:49:00,
2013-01-08 10:54:00,39.0,31.1,30.34,WSW,248,1.1,0.0,73,0.00,CLR,,0.00,WeatherDisplay:10.37,2013-01-08 15:54:00,
2013-01-08 10:59:00,39.2,31.3,30.34,WSW,248,2.4,2.4,73,0.00,CLR,,0.00,WeatherDisplay:10.37,2013-01-08 15:59:00,
2013-01-08 11:04:00,39.6,30.9,30.33,WSW,248,2.3,2.3,71,0.00,CLR,,0.00,WeatherDisplay:10.37,2013-01-08 16:04:00,
2013-01-08 11:09:00,39.9,31.3,30.33,NE,45,1.1,0.0,71,0.00,CLR,,0.00,WeatherDisplay:10.37,2013-01-08 16:09:00,
2013-01-08 11:14:00,40.3,31.6,30.32,SSW,202,4.6,4.6,71,0.00,CLR,,0.00,WeatherDisplay:10.37,2013-01-08 16:14:00,
2013-01-08 11:19:00,40.6,31.6,30.32,SW,225,3.5,3.5,70,0.00,CLR,,0.00,WeatherDisplay:10.37,2013-01-08 16:19:00,
2013-01-08 11:24:00,41.0,32.0,30.31,SSE,158,2.3,0.0,70,0.00,CLR,,0.00,WeatherDisplay:10.37,2013-01-08 16:24:00,
2013-01-08 11:29:00,41.4,32.3,30.31,ENE,68,1.1,1.1,70,0.00,CLR,,0.00,WeatherDisplay:10.37,2013-01-08 16:29:00,
2013-01-08 11:34:00,41.5,32.1,30.31,WSW,248,3.5,3.5,69,0.00,CLR,,0.00,WeatherDisplay:10.37,2013-01-08 16:34:00,
2013-01-08 11:39:00,41.9,32.1,30.31,East,90,2.3,2.3,68,0.00,CLR,,0.00,WeatherDisplay:10.37,2013-01-08 16:39:00,
2013-01-08 11:44:00,42.3,32.8,30.30,SSE,158,3.5,3.5,69,0.00,CLR,,0.00,WeatherDisplay:10.37,2013-01-08 16:44:00,
2013-01-08 11:49:00,42.6,32.8,30.30,WSW,248,2.3,2.3,68,0.00,CLR,,0.00,WeatherDisplay:10.37,2013-01-08 16:49:00,
2013-01-08 11:54:00,42.8,33.0,30.29,SW,225,3.5,3.5,68,0.00,CLR,,0.00,WeatherDisplay:10.37,2013-01-08 16:54:00,
2013-01-08 11:59:00,43.2,32.6,30.29,SSW,202,2.3,2.9,66,0.00,CLR,,0.00,WeatherDisplay:10.37,2013-01-08 16:59:00,
2013-01-08 12:04:00,43.5,32.9,30.29,South,180,4.6,4.6,66,0.00,CLR,,0.00,WeatherDisplay:10.37,2013-01-08 17:04:00,
2013-01-08 12:09:00,43.7,32.7,30.29,SSW,202,2.3,2.3,65,0.00,CLR,,0.00,WeatherDisplay:10.37,2013-01-08 17:09:00,
2013-01-08 12:14:00,43.9,33.3,30.29,South,180,3.5,3.5,66,0.00,CLR,,0.00,WeatherDisplay:10.37,2013-01-08 17:14:00,
2013-01-08 12:19:00,44.2,33.2,30.29,West,270,3.5,3.5,65,0.00,CLR,,0.00,WeatherDisplay:10.37,2013-01-08 17:19:00,
2013-01-08 12:24:00,44.4,33.0,30.29,WSW,248,2.6,2.6,64,0.00,CLR,,0.00,WeatherDisplay:10.37,2013-01-08 17:24:00,
2013-01-08 12:29:00,44.8,33.3,30.29,WSW,248,2.4,2.4,64,0.00,CLR,,0.00,WeatherDisplay:10.37,2013-01-08 17:29:00,
2013-01-08 12:34:00,45.1,33.3,30.29,WSW,248,2.3,2.3,63,0.00,CLR,,0.00,WeatherDisplay:10.37,2013-01-08 17:34:00,
2013-01-08 12:39:00,45.5,33.6,30.29,SW,225,2.3,2.3,63,0.00,CLR,,0.00,WeatherDisplay:10.37,2013-01-08 17:39:00,
2013-01-08 12:44:00,45.9,33.2,30.28,West,270,4.9,4.9,61,0.00,CLR,,0.00,WeatherDisplay:10.37,2013-01-08 17:44:00,
2013-01-08 12:49:00,46.2,33.9,30.28,WSW,248,3.5,3.5,62,0.00,CLR,,0.00,WeatherDisplay:10.37,2013-01-08 17:49:00,
2013-01-08 12:54:00,46.6,33.4,30.28,WNW,292,3.5,3.5,60,0.00,CLR,,0.00,WeatherDisplay:10.37,2013-01-08 17:54:00,
2013-01-08 12:59:00,46.8,33.2,30.28,SSW,202,5.8,5.8,59,0.00,CLR,,0.00,WeatherDisplay:10.37,2013-01-08 17:59:00,
2013-01-08 13:04:00,46.9,33.3,30.28,SSE,158,4.6,4.6,59,0.00,CLR,,0.00,WeatherDisplay:10.37,2013-01-08 18:04:00,
2013-01-08 13:09:00,47.1,33.5,30.28,SW,225,4.6,4.6,59,0.00,CLR,,0.00,WeatherDisplay:10.37,2013-01-08 18:09:00,
2013-01-08 13:14:00,47.3,33.3,30.27,SW,225,4.6,4.6,58,0.00,CLR,,0.00,WeatherDisplay:10.37,2013-01-08 18:14:00,
2013-01-08 13:19:00,47.7,34.0,30.27,WSW,248,3.5,3.5,59,0.00,CLR,,0.00,WeatherDisplay:10.37,2013-01-08 18:19:00,
2013-01-08 13:24:00,48.0,33.5,30.27,WSW,248,3.5,3.5,57,0.00,CLR,,0.00,WeatherDisplay:10.37,2013-01-08 18:24:00,
2013-01-08 13:29:00,48.0,33.1,30.27,SSW,202,4.6,4.6,56,0.00,CLR,,0.00,WeatherDisplay:10.37,2013-01-08 18:29:00,
2013-01-08 13:34:00,48.2,33.7,30.27,West,270,5.8,5.8,57,0.00,CLR,,0.00,WeatherDisplay:10.37,2013-01-08 18:34:00,
2013-01-08 13:39:00,48.4,33.8,30.28,WSW,248,3.5,3.5,57,0.00,CLR,,0.00,WeatherDisplay:10.37,2013-01-08 18:39:00,
2013-01-08 13:44:00,48.6,33.6,30.27,SSW,202,5.8,5.8,56,0.00,CLR,,0.00,WeatherDisplay:10.37,2013-01-08 18:44:00,
2013-01-08 13:49:00,48.9,33.9,30.27,WSW,248,4.6,4.6,56,0.00,CLR,,0.00,WeatherDisplay:10.37,2013-01-08 18:49:00,
2013-01-08 13:54:00,48.9,33.9,30.27,West,270,3.5,3.5,56,0.00,CLR,,0.00,WeatherDisplay:10.37,2013-01-08 18:54:00,
2013-01-08 13:59:00,48.9,33.9,30.27,NW,315,2.3,2.3,56,0.00,CLR,,0.00,WeatherDisplay:10.37,2013-01-08 18:59:00,
2013-01-08 14:04:00,49.1,33.6,30.28,SW,225,2.3,2.3,55,0.00,CLR,,0.00,WeatherDisplay:10.37,2013-01-08 19:04:00,
2013-01-08 14:09:00,49.5,33.5,30.27,West,270,2.6,2.6,54,0.00,CLR,,0.00,WeatherDisplay:10.37,2013-01-08 19:09:00,
2013-01-08 14:14:00,49.5,33.5,30.28,WSW,248,3.5,3.5,54,0.00,CLR,,0.00,WeatherDisplay:10.37,2013-01-08 19:14:00,
2013-01-08 14:19:00,49.3,33.3,30.28,SW,225,3.1,3.1,54,0.00,CLR,,0.00,WeatherDisplay:10.37,2013-01-08 19:19:00,
2013-01-08 14:24:00,49.5,32.6,30.28,West,270,3.5,3.5,52,0.00,CLR,,0.00,WeatherDisplay:10.37,2013-01-08 19:24:00,
2013-01-08 14:29:00,49.6,33.2,30.28,SSW,202,1.8,1.8,53,0.00,CLR,,0.00,WeatherDisplay:10.37,2013-01-08 19:29:00,
2013-01-08 14:34:00,49.8,33.4,30.28,SSW,202,2.3,2.3,53,0.00,CLR,,0.00,WeatherDisplay:10.37,2013-01-08 19:34:00,
2013-01-08 14:39:00,50.2,33.7,30.28,West,270,2.3,2.3,53,0.00,CLR,,0.00,WeatherDisplay:10.37,2013-01-08 19:39:00,
2013-01-08 14:44:00,50.5,34.0,30.28,South,180,2.3,2.3,53,0.00,CLR,,0.00,WeatherDisplay:10.37,2013-01-08 19:44:00,
2013-01-08 14:49:00,51.4,34.4,30.28,SW,225,2.3,2.3,52,0.00,CLR,,0.00,WeatherDisplay:10.37,2013-01-08 19:49:00,
2013-01-08 14:54:00,51.8,34.7,30.28,SW,225,2.3,2.3,52,0.00,CLR,,0.00,WeatherDisplay:10.37,2013-01-08 19:54:00,
2013-01-08 14:59:00,51.6,34.1,30.28,SW,225,2.3,2.3,51,0.00,CLR,,0.00,WeatherDisplay:10.37,2013-01-08 19:59:00,
2013-01-08 15:04:00,51.4,33.4,30.28,West,270,2.3,2.3,50,0.00,CLR,,0.00,WeatherDisplay:10.37,2013-01-08 20:04:00,
2013-01-08 15:09:00,51.1,33.6,30.28,South,180,2.4,2.4,51,0.00,CLR,,0.00,WeatherDisplay:10.37,2013-01-08 20:09:00,
2013-01-08 15:14:00,50.9,33.4,30.27,SSE,158,4.0,4.0,51,0.00,CLR,,0.00,WeatherDisplay:10.37,2013-01-08 20:14:00,
2013-01-08 15:19:00,50.7,33.2,30.27,WSW,248,4.6,4.6,51,0.00,CLR,,0.00,WeatherDisplay:10.37,2013-01-08 20:19:00,
2013-01-08 15:24:00,50.5,33.1,30.27,West,270,4.7,4.7,51,0.00,CLR,,0.00,WeatherDisplay:10.37,2013-01-08 20:24:00,
2013-01-08 15:29:00,50.4,32.4,30.27,SSE,158,2.3,3.3,50,0.00,CLR,,0.00,WeatherDisplay:10.37,2013-01-08 20:29:00,
2013-01-08 15:34:00,50.2,32.7,30.27,SSW,202,4.6,4.6,51,0.00,CLR,,0.00,WeatherDisplay:10.37,2013-01-08 20:34:00,
2013-01-08 15:39:00,50.2,32.7,30.27,SW,225,4.5,4.5,51,0.00,CLR,,0.00,WeatherDisplay:10.37,2013-01-08 20:39:00,
2013-01-08 15:44:00,50.0,32.6,30.27,South,180,5.8,5.8,51,0.00,CLR,,0.00,WeatherDisplay:10.37,2013-01-08 20:44:00,
2013-01-08 15:49:00,49.5,32.1,30.27,SE,135,3.8,3.8,51,0.00,CLR,,0.00,WeatherDisplay:10.37,2013-01-08 20:49:00,
2013-01-08 15:54:00,49.3,31.9,30.27,SW,225,2.3,2.3,51,0.00,CLR,,0.00,WeatherDisplay:10.37,2013-01-08 20:54:00,
2013-01-08 15:59:00,48.7,31.9,30.26,SW,225,3.5,3.5,52,0.00,CLR,,0.00,WeatherDisplay:10.37,2013-01-08 20:59:00,
2013-01-08 16:04:00,48.6,31.7,30.27,SSE,158,2.3,2.3,52,0.00,CLR,,0.00,WeatherDisplay:10.37,2013-01-08 21:04:00,
2013-01-08 16:09:00,48.4,32.0,30.27,SW,225,2.9,2.9,53,0.00,CLR,,0.00,WeatherDisplay:10.37,2013-01-08 21:09:00,
2013-01-08 16:14:00,48.2,31.9,30.27,WSW,248,2.3,2.3,53,0.00,CLR,,0.00,WeatherDisplay:10.37,2013-01-08 21:14:00,
2013-01-08 16:19:00,48.2,31.9,30.27,West,270,2.3,2.3,53,0.00,CLR,,0.00,WeatherDisplay:10.37,2013-01-08 21:19:00,
2013-01-08 16:24:00,48.0,31.7,30.27,West,270,2.3,2.3,53,0.00,CLR,,0.00,WeatherDisplay:10.37,2013-01-08 21:24:00,
2013-01-08 16:29:00,47.7,31.4,30.27,West,270,2.3,2.4,53,0.00,CLR,,0.00,WeatherDisplay:10.37,2013-01-08 21:29:00,
2013-01-08 16:34:00,47.3,31.5,30.27,SW,225,2.3,2.3,54,0.00,CLR,,0.00,WeatherDisplay:10.37,2013-01-08 21:34:00,
2013-01-08 16:39:00,46.9,31.1,30.27,SSW,202,3.5,3.5,54,0.00,CLR,,0.00,WeatherDisplay:10.37,2013-01-08 21:39:00,
2013-01-08 16:44:00,46.6,30.8,30.28,South,180,1.8,1.8,54,0.00,CLR,,0.00,WeatherDisplay:10.37,2013-01-08 21:44:00,
2013-01-08 16:49:00,46.2,30.9,30.28,SW,225,1.1,0.0,55,0.00,CLR,,0.00,WeatherDisplay:10.37,2013-01-08 21:49:00,
2013-01-08 16:54:00,46.0,30.8,30.28,WSW,248,2.3,2.3,55,0.00,CLR,,0.00,WeatherDisplay:10.37,2013-01-08 21:54:00,
2013-01-08 16:59:00,45.7,30.9,30.28,SW,225,0.0,0.0,56,0.00,CLR,,0.00,WeatherDisplay:10.37,2013-01-08 21:59:00,
2013-01-08 17:04:00,45.3,30.5,30.28,SSW,202,2.3,2.3,56,0.00,CLR,,0.00,WeatherDisplay:10.37,2013-01-08 22:04:00,
2013-01-08 17:09:00,45.1,30.8,30.28,SW,225,1.1,1.1,57,0.00,CLR,,0.00,WeatherDisplay:10.37,2013-01-08 22:09:00,
2013-01-08 17:14:00,45.0,30.6,30.29,SSW,202,1.1,1.1,57,0.00,CLR,,0.00,WeatherDisplay:10.37,2013-01-08 22:14:00,
2013-01-08 17:19:00,44.8,30.5,30.29,SE,135,0.0,0.0,57,0.00,CLR,,0.00,WeatherDisplay:10.37,2013-01-08 22:19:00,
2013-01-08 17:24:00,44.2,29.5,30.29,ESE,112,0.0,0.0,56,0.00,CLR,,0.00,WeatherDisplay:10.37,2013-01-08 22:24:00,
2013-01-08 17:29:00,43.7,29.5,30.29,SSW,202,0.0,0.0,57,0.00,CLR,,0.00,WeatherDisplay:10.37,2013-01-08 22:29:00,
2013-01-08 17:34:00,43.2,28.9,30.29,SSW,202,0.0,0.0,57,0.00,CLR,,0.00,WeatherDisplay:10.37,2013-01-08 22:34:00,
2013-01-08 17:39:00,42.8,29.0,30.29,SSE,158,0.0,0.0,58,0.00,CLR,,0.00,WeatherDisplay:10.37,2013-01-08 22:39:00,
2013-01-08 17:45:00,42.3,28.9,30.29,SW,225,0.0,0.0,59,0.00,CLR,,0.00,WeatherDisplay:10.37,2013-01-08 22:45:00,
2013-01-08 17:50:00,42.1,28.8,30.29,SW,225,0.0,0.0,59,0.00,CLR,,0.00,WeatherDisplay:10.37,2013-01-08 22:50:00,
2013-01-08 17:55:00,41.7,28.8,30.29,SSE,158,0.0,0.0,60,0.00,CLR,,0.00,WeatherDisplay:10.37,2013-01-08 22:55:00,
2013-01-08 18:00:00,41.4,28.5,30.29,SW,225,1.4,1.4,60,0.00,CLR,,0.00,WeatherDisplay:10.37,2013-01-08 23:00:00,
2013-01-08 18:05:00,41.5,29.1,30.29,SW,225,1.1,0.0,61,0.00,CLR,,0.00,WeatherDisplay:10.37,2013-01-08 23:05:00,
2013-01-08 18:10:00,41.4,28.9,30.30,SW,225,1.1,1.1,61,0.00,CLR,,0.00,WeatherDisplay:10.37,2013-01-08 23:10:00,
2013-01-08 18:15:00,41.4,28.9,30.30,SW,225,0.0,0.2,61,0.00,CLR,,0.00,WeatherDisplay:10.37,2013-01-08 23:15:00,
2013-01-08 18:20:00,41.4,29.3,30.30,SSW,202,2.3,2.3,62,0.00,CLR,,0.00,WeatherDisplay:10.37,2013-01-08 23:20:00,
2013-01-08 18:25:00,41.4,29.3,30.30,WSW,248,1.4,1.4,62,0.00,CLR,,0.00,WeatherDisplay:10.37,2013-01-08 23:25:00,
2013-01-08 18:30:00,41.4,29.3,30.30,SW,225,1.1,1.1,62,0.00,CLR,,0.00,WeatherDisplay:10.37,2013-01-08 23:30:00,
2013-01-08 18:35:00,41.4,29.3,30.31,SW,225,0.7,0.7,62,0.00,CLR,,0.00,WeatherDisplay:10.37,2013-01-08 23:35:00,
2013-01-08 18:40:00,41.4,29.3,30.31,SW,225,2.3,0.0,62,0.00,CLR,,0.00,WeatherDisplay:10.37,2013-01-08 23:40:00,
2013-01-08 18:45:00,41.4,29.3,30.31,WSW,248,0.2,0.2,62,0.00,CLR,,0.00,WeatherDisplay:10.37,2013-01-08 23:45:00,
2013-01-08 18:50:00,41.2,29.5,30.31,South,180,0.0,0.0,63,0.00,CLR,,0.00,WeatherDisplay:10.37,2013-01-08 23:50:00,
2013-01-08 18:55:00,41.0,29.4,30.31,South,180,1.1,1.1,63,0.00,CLR,,0.00,WeatherDisplay:10.37,2013-01-08 23:55:00,
2013-01-08 19:00:00,41.0,29.4,30.31,WSW,248,0.0,0.0,63,0.00,CLR,,0.00,WeatherDisplay:10.37,2013-01-09 00:00:00,
2013-01-08 19:05:00,40.8,29.2,30.31,SSW,202,0.0,0.0,63,0.00,CLR,,0.00,WeatherDisplay:10.37,2013-01-09 00:05:00,
2013-01-08 19:10:00,40.6,29.0,30.31,South,180,1.1,1.1,63,0.00,CLR,,0.00,WeatherDisplay:10.37,2013-01-09 00:10:00,
2013-01-08 19:15:00,40.6,29.0,30.31,SW,225,0.5,0.5,63,0.00,CLR,,0.00,WeatherDisplay:10.37,2013-01-09 00:15:00,
2013-01-08 19:20:00,40.5,29.2,30.31,SW,225,0.0,0.0,64,0.00,CLR,,0.00,WeatherDisplay:10.37,2013-01-09 00:20:00,
2013-01-08 19:25:00,40.5,29.2,30.31,SSW,202,1.1,0.0,64,0.00,CLR,,0.00,WeatherDisplay:10.37,2013-01-09 00:25:00,
2013-01-08 19:30:00,40.3,29.1,30.31,SSE,158,0.5,0.5,64,0.00,CLR,,0.00,WeatherDisplay:10.37,2013-01-09 00:30:00,
2013-01-08 19:35:00,40.1,29.3,30.31,South,180,0.0,0.0,65,0.00,CLR,,0.00,WeatherDisplay:10.37,2013-01-09 00:35:00,
2013-01-08 19:40:00,39.9,28.7,30.31,SSW,202,1.1,1.1,64,0.00,CLR,,0.00,WeatherDisplay:10.37,2013-01-09 00:40:00,
2013-01-08 19:45:00,39.7,28.5,30.31,South,180,1.1,1.1,64,0.00,CLR,,0.00,WeatherDisplay:10.37,2013-01-09 00:45:00,
2013-01-08 19:50:00,39.6,28.8,30.31,SSW,202,0.0,0.0,65,0.00,CLR,,0.00,WeatherDisplay:10.37,2013-01-09 00:50:00,
2013-01-08 19:55:00,39.4,28.6,30.31,SSW,202,0.0,0.0,65,0.00,CLR,,0.00,WeatherDisplay:10.37,2013-01-09 00:55:00,
2013-01-08 20:00:00,39.2,28.4,30.31,South,180,0.0,0.0,65,0.00,CLR,,0.00,WeatherDisplay:10.37,2013-01-09 01:00:00,
2013-01-08 20:05:00,39.0,28.2,30.31,SSE,158,0.0,0.0,65,0.00,CLR,,0.00,WeatherDisplay:10.37,2013-01-09 01:05:00,
2013-01-08 20:10:00,38.5,28.1,30.31,ESE,112,0.0,0.0,66,0.00,CLR,,0.00,WeatherDisplay:10.37,2013-01-09 01:10:00,
2013-01-08 20:15:00,38.1,28.1,30.32,ESE,112,0.0,0.0,67,0.00,CLR,,0.00,WeatherDisplay:10.37,2013-01-09 01:15:00,
2013-01-08 20:20:00,37.8,27.8,30.31,SSE,158,0.0,0.0,67,0.00,CLR,,0.00,WeatherDisplay:10.37,2013-01-09 01:20:00,
2013-01-08 20:25:00,37.8,27.8,30.32,SSE,158,0.0,0.0,67,0.00,CLR,,0.00,WeatherDisplay:10.37,2013-01-09 01:25:00,
2013-01-08 20:30:00,37.8,28.1,30.32,SW,225,0.0,0.0,68,0.00,CLR,,0.00,WeatherDisplay:10.37,2013-01-09 01:30:00,
2013-01-08 20:35:00,37.8,28.1,30.32,SW,225,0.0,0.0,68,0.00,CLR,,0.00,WeatherDisplay:10.37,2013-01-09 01:35:00,
2013-01-08 20:40:00,37.6,28.0,30.32,ESE,112,0.0,0.0,68,0.00,CLR,,0.00,WeatherDisplay:10.37,2013-01-09 01:40:00,
2013-01-08 20:45:00,37.4,28.2,30.32,SE,135,0.0,0.0,69,0.00,CLR,,0.00,WeatherDisplay:10.37,2013-01-09 01:45:00,
2013-01-08 20:50:00,37.4,28.2,30.31,South,180,0.0,0.0,69,0.00,CLR,,0.00,WeatherDisplay:10.37,2013-01-09 01:50:00,
2013-01-08 20:55:00,37.2,28.0,30.31,SW,225,0.0,0.0,69,0.00,CLR,,0.00,WeatherDisplay:10.37,2013-01-09 01:55:00,
2013-01-08 21:00:00,37.0,28.2,30.31,SW,225,0.0,0.0,70,0.00,CLR,,0.00,WeatherDisplay:10.37,2013-01-09 02:00:00,
2013-01-08 21:05:00,37.0,28.2,30.32,East,90,0.0,0.0,70,0.00,CLR,,0.00,WeatherDisplay:10.37,2013-01-09 02:05:00,
2013-01-08 21:10:00,36.9,28.0,30.31,East,90,0.5,0.5,70,0.00,CLR,,0.00,WeatherDisplay:10.37,2013-01-09 02:10:00,
2013-01-08 21:15:00,36.7,28.2,30.31,ENE,68,0.0,0.0,71,0.00,CLR,,0.00,WeatherDisplay:10.37,2013-01-09 02:15:00,
2013-01-08 21:20:00,36.5,28.0,30.31,ENE,68,0.0,0.0,71,0.00,CLR,,0.00,WeatherDisplay:10.37,2013-01-09 02:20:00,
2013-01-08 21:25:00,36.3,27.8,30.32,East,90,0.0,0.0,71,0.00,CLR,,0.00,WeatherDisplay:10.37,2013-01-09 02:25:00,
2013-01-08 21:30:00,36.1,27.6,30.32,East,90,0.0,0.0,71,0.00,CLR,,0.00,WeatherDisplay:10.37,2013-01-09 02:30:00,
2013-01-08 21:35:00,36.0,27.5,30.32,East,90,0.0,0.0,71,0.00,CLR,,0.00,WeatherDisplay:10.37,2013-01-09 02:35:00,
2013-01-08 21:40:00,35.6,27.1,30.32,East,90,0.0,0.0,71,0.00,CLR,,0.00,WeatherDisplay:10.37,2013-01-09 02:40:00,
2013-01-08 21:45:00,35.6,27.5,30.32,East,90,0.0,0.0,72,0.00,CLR,,0.00,WeatherDisplay:10.37,2013-01-09 02:45:00,
2013-01-08 21:50:00,35.2,27.1,30.31,East,90,0.0,0.0,72,0.00,CLR,,0.00,WeatherDisplay:10.37,2013-01-09 02:50:00,
2013-01-08 21:55:00,34.9,26.8,30.32,East,90,0.0,0.0,72,0.00,CLR,,0.00,WeatherDisplay:10.37,2013-01-09 02:55:00,
2013-01-08 22:00:00,34.7,26.9,30.32,East,90,0.0,0.0,73,0.00,CLR,,0.00,WeatherDisplay:10.37,2013-01-09 03:00:00,
2013-01-08 22:05:00,34.5,26.8,30.32,ENE,68,0.0,0.0,73,0.00,CLR,,0.00,WeatherDisplay:10.37,2013-01-09 03:05:00,
2013-01-08 22:10:00,34.2,26.4,30.32,East,90,0.0,0.2,73,0.00,CLR,,0.00,WeatherDisplay:10.37,2013-01-09 03:10:00,
2013-01-08 22:15:00,34.2,26.4,30.32,ENE,68,0.0,0.0,73,0.00,CLR,,0.00,WeatherDisplay:10.37,2013-01-09 03:15:00,
2013-01-08 22:20:00,34.0,26.2,30.32,ENE,68,0.2,0.2,73,0.00,CLR,,0.00,WeatherDisplay:10.37,2013-01-09 03:20:00,
2013-01-08 22:25:00,34.0,26.2,30.32,ENE,68,0.0,0.0,73,0.00,CLR,,0.00,WeatherDisplay:10.37,2013-01-09 03:25:00,
2013-01-08 22:30:00,33.8,26.4,30.32,ENE,68,0.0,0.0,74,0.00,CLR,,0.00,WeatherDisplay:10.37,2013-01-09 03:30:00,
2013-01-08 22:35:00,33.6,26.2,30.33,South,180,0.0,0.0,74,0.00,CLR,,0.00,WeatherDisplay:10.37,2013-01-09 03:35:00,
2013-01-08 22:40:00,33.3,25.9,30.32,South,180,0.0,0.0,74,0.00,CLR,,0.00,WeatherDisplay:10.37,2013-01-09 03:40:00,
2013-01-08 22:45:00,32.9,25.8,30.33,ESE,112,0.0,0.0,75,0.00,CLR,,0.00,WeatherDisplay:10.37,2013-01-09 03:45:00,
2013-01-08 22:50:00,32.7,25.7,30.33,ESE,112,0.0,0.0,75,0.00,CLR,,0.00,WeatherDisplay:10.37,2013-01-09 03:50:00,
2013-01-08 22:55:00,32.4,25.3,30.33,ESE,112,0.0,0.0,75,0.00,CLR,,0.00,WeatherDisplay:10.37,2013-01-09 03:55:00,
2013-01-08 23:00:00,32.0,25.3,30.33,SSE,158,0.0,0.0,76,0.00,CLR,,0.00,WeatherDisplay:10.37,2013-01-09 04:00:00,
2013-01-08 23:05:00,31.8,25.1,30.34,SSE,158,0.0,0.0,76,0.00,CLR,,0.00,WeatherDisplay:10.37,2013-01-09 04:05:00,
2013-01-08 23:10:00,31.8,25.1,30.33,SSE,158,0.0,0.0,76,0.00,CLR,,0.00,WeatherDisplay:10.37,2013-01-09 04:10:00,
2013-01-08 23:15:00,31.6,25.3,30.33,ENE,68,0.0,0.0,77,0.00,CLR,,0.00,WeatherDisplay:10.37,2013-01-09 04:15:00,
2013-01-08 23:20:00,31.6,25.3,30.34,ENE,68,0.0,0.0,77,0.00,CLR,,0.00,WeatherDisplay:10.37,2013-01-09 04:20:00,
2013-01-08 23:25:00,31.3,24.9,30.34,ENE,68,0.0,0.0,77,0.00,CLR,,0.00,WeatherDisplay:10.37,2013-01-09 04:25:00,
2013-01-08 23:30:00,31.3,25.2,30.34,ENE,68,0.0,0.0,78,0.00,CLR,,0.00,WeatherDisplay:10.37,2013-01-09 04:30:00,
2013-01-08 23:35:00,31.1,25.0,30.34,ENE,68,0.0,0.0,78,0.00,CLR,,0.00,WeatherDisplay:10.37,2013-01-09 04:35:00,
2013-01-08 23:40:00,30.9,24.9,30.33,ENE,68,0.5,0.5,78,0.00,CLR,,0.00,WeatherDisplay:10.37,2013-01-09 04:40:00,
2013-01-08 23:45:00,31.3,25.2,30.33,ENE,68,0.0,0.0,78,0.00,CLR,,0.00,WeatherDisplay:10.37,2013-01-09 04:45:00,
2013-01-08 23:50:00,31.3,25.2,30.33,ENE,68,0.0,0.0,78,0.00,CLR,,0.00,WeatherDisplay:10.37,2013-01-09 04:50:00,
2013-01-08 23:55:00,31.3,25.2,30.33,ENE,68,0.0,0.0,78,0.00,CLR,,0.00,WeatherDisplay:10.37,2013-01-09 04:55:00,